Dalbeattie, United Kingdom
Current Conditions -  °F | °C
As of 2:50 AM on Monday 22 Dec 2014 (Local Time) from EGPK Reporting Station
Moderate Rain Moderate Rain  
Wind Chill: 50°   Ceiling: 1200
Heat Index: 50°   Visibility: 4mi
Dew Point: 48°   Wind: 13mph
Humidity: 94%   Direction: 250°WSW
Pressure: 29.62"   Gusts: NA
Location:  54.93°N, 3.82°W
Report Text: EGPK 220250Z 25011KT 6000 RADZ SCT005 BKN012 10/09 Q1003
Loading
Personal Weather Stations






























Interactive Weather Map New forecast layout! Learn more

10-Day Weather Forecast

Advertisements
Track Severe Weather on mobile